sensor_id;sensor_type;location;lat;lon;timestamp;P1;durP1;ratioP1;P2;durP2;ratioP2
27612;SDS011;15036;48.094;-1.690;2023-04-15T00:01:03;5.65;;;1.42;;
27612;SDS011;15036;48.094;-1.690;2023-04-15T00:03:29;7.43;;;1.40;;
27612;SDS011;15036;48.094;-1.690;2023-04-15T00:05:56;6.60;;;1.52;;
27612;SDS011;15036;48.094;-1.690;2023-04-15T00:08:22;5.97;;;1.38;;
27612;SDS011;15036;48.094;-1.690;2023-04-15T00:10:47;5.63;;;1.50;;
27612;SDS011;15036;48.094;-1.690;2023-04-15T00:13:13;6.75;;;1.27;;
27612;SDS011;15036;48.094;-1.690;2023-04-15T00:15:39;3.75;;;1.35;;
27612;SDS011;15036;48.094;-1.690;2023-04-15T00:18:14;5.68;;;1.33;;
27612;SDS011;15036;48.094;-1.690;2023-04-15T00:20:39;8.10;;;1.20;;
27612;SDS011;15036;48.094;-1.690;2023-04-15T00:23:05;5.18;;;1.23;;
27612;SDS011;15036;48.094;-1.690;2023-04-15T00:25:31;5.57;;;1.05;;
27612;SDS011;15036;48.094;-1.690;2023-04-15T00:27:57;7.20;;;1.50;;
27612;SDS011;15036;48.094;-1.690;2023-04-15T00:30:22;6.72;;;1.20;;
27612;SDS011;15036;48.094;-1.690;2023-04-15T00:32:47;6.10;;;1.30;;
27612;SDS011;15036;48.094;-1.690;2023-04-15T00:35:13;8.52;;;1.42;;
27612;SDS011;15036;48.094;-1.690;2023-04-15T00:37:38;8.80;;;1.30;;
27612;SDS011;15036;48.094;-1.690;2023-04-15T00:40:04;4.95;;;1.48;;
27612;SDS011;15036;48.094;-1.690;2023-04-15T00:42:31;7.93;;;1.25;;
27612;SDS011;15036;48.094;-1.690;2023-04-15T00:44:58;8.38;;;1.58;;
27612;SDS011;15036;48.094;-1.690;2023-04-15T00:47:24;6.93;;;1.08;;
27612;SDS011;15036;48.094;-1.690;2023-04-15T00:49:51;3.90;;;0.90;;
27612;SDS011;15036;48.094;-1.690;2023-04-15T00:52:17;7.57;;;1.40;;
27612;SDS011;15036;48.094;-1.690;2023-04-15T00:54:42;4.20;;;1.10;;
27612;SDS011;15036;48.094;-1.690;2023-04-15T00:57:08;7.20;;;1.10;;
27612;SDS011;15036;48.094;-1.690;2023-04-15T00:59:34;4.72;;;0.98;;
27612;SDS011;15036;48.094;-1.690;2023-04-15T01:02:00;6.20;;;1.08;;
27612;SDS011;15036;48.094;-1.690;2023-04-15T01:04:25;6.03;;;1.30;;
27612;SDS011;15036;48.094;-1.690;2023-04-15T01:06:51;5.90;;;1.20;;
27612;SDS011;15036;48.094;-1.690;2023-04-15T01:09:16;3.60;;;1.13;;
27612;SDS011;15036;48.094;-1.690;2023-04-15T01:11:42;6.25;;;0.98;;
27612;SDS011;15036;48.094;-1.690;2023-04-15T01:14:08;7.07;;;1.38;;
27612;SDS011;15036;48.094;-1.690;2023-04-15T01:16:35;3.50;;;1.05;;
27612;SDS011;15036;48.094;-1.690;2023-04-15T01:19:03;5.57;;;1.25;;
27612;SDS011;15036;48.094;-1.690;2023-04-15T01:21:35;4.20;;;1.17;;
27612;SDS011;15036;48.094;-1.690;2023-04-15T01:24:04;5.40;;;1.05;;
27612;SDS011;15036;48.094;-1.690;2023-04-15T01:26:38;4.80;;;1.20;;
27612;SDS011;15036;48.094;-1.690;2023-04-15T01:29:14;4.00;;;0.85;;
27612;SDS011;15036;48.094;-1.690;2023-04-15T01:31:40;2.15;;;0.85;;
27612;SDS011;15036;48.094;-1.690;2023-04-15T01:34:13;6.32;;;1.30;;
27612;SDS011;15036;48.094;-1.690;2023-04-15T01:36:39;7.30;;;1.38;;
27612;SDS011;15036;48.094;-1.690;2023-04-15T01:39:04;4.55;;;1.30;;
27612;SDS011;15036;48.094;-1.690;2023-04-15T01:41:30;7.95;;;1.58;;
27612;SDS011;15036;48.094;-1.690;2023-04-15T01:43:56;5.68;;;1.38;;
27612;SDS011;15036;48.094;-1.690;2023-04-15T01:46:22;4.28;;;1.13;;
27612;SDS011;15036;48.094;-1.690;2023-04-15T01:48:47;6.57;;;1.30;;
27612;SDS011;15036;48.094;-1.690;2023-04-15T01:51:12;5.57;;;1.33;;
27612;SDS011;15036;48.094;-1.690;2023-04-15T01:53:38;7.90;;;1.60;;
27612;SDS011;15036;48.094;-1.690;2023-04-15T01:56:03;5.07;;;1.55;;
27612;SDS011;15036;48.094;-1.690;2023-04-15T01:58:29;7.63;;;1.42;;
27612;SDS011;15036;48.094;-1.690;2023-04-15T02:00:55;5.82;;;1.25;;
27612;SDS011;15036;48.094;-1.690;2023-04-15T02:03:21;7.32;;;1.42;;
27612;SDS011;15036;48.094;-1.690;2023-04-15T02:05:46;7.43;;;1.42;;
27612;SDS011;15036;48.094;-1.690;2023-04-15T02:08:11;7.63;;;1.58;;
27612;SDS011;15036;48.094;-1.690;2023-04-15T02:10:37;5.25;;;1.40;;
27612;SDS011;15036;48.094;-1.690;2023-04-15T02:13:03;8.75;;;1.63;;
27612;SDS011;15036;48.094;-1.690;2023-04-15T02:15:28;6.90;;;1.63;;
27612;SDS011;15036;48.094;-1.690;2023-04-15T02:17:54;7.75;;;1.40;;
27612;SDS011;15036;48.094;-1.690;2023-04-15T02:20:20;8.07;;;1.52;;
27612;SDS011;15036;48.094;-1.690;2023-04-15T02:22:45;5.95;;;1.48;;
27612;SDS011;15036;48.094;-1.690;2023-04-15T02:25:12;8.48;;;1.83;;
27612;SDS011;15036;48.094;-1.690;2023-04-15T02:27:41;7.75;;;1.55;;
27612;SDS011;15036;48.094;-1.690;2023-04-15T02:30:07;8.63;;;1.50;;
27612;SDS011;15036;48.094;-1.690;2023-04-15T02:32:33;5.25;;;1.33;;
27612;SDS011;15036;48.094;-1.690;2023-04-15T02:35:05;4.15;;;1.40;;
27612;SDS011;15036;48.094;-1.690;2023-04-15T02:37:32;4.53;;;1.60;;
27612;SDS011;15036;48.094;-1.690;2023-04-15T02:40:04;11.50;;;1.90;;
27612;SDS011;15036;48.094;-1.690;2023-04-15T02:42:35;8.95;;;1.52;;
27612;SDS011;15036;48.094;-1.690;2023-04-15T02:45:01;6.32;;;1.42;;
27612;SDS011;15036;48.094;-1.690;2023-04-15T02:47:27;7.28;;;1.45;;
27612;SDS011;15036;48.094;-1.690;2023-04-15T02:49:52;9.27;;;1.50;;
27612;SDS011;15036;48.094;-1.690;2023-04-15T02:52:17;6.47;;;1.40;;
27612;SDS011;15036;48.094;-1.690;2023-04-15T02:54:43;6.63;;;1.60;;
27612;SDS011;15036;48.094;-1.690;2023-04-15T02:57:08;9.20;;;1.73;;
27612;SDS011;15036;48.094;-1.690;2023-04-15T02:59:35;8.98;;;1.58;;
27612;SDS011;15036;48.094;-1.690;2023-04-15T03:02:02;7.35;;;1.50;;
27612;SDS011;15036;48.094;-1.690;2023-04-15T03:04:27;10.18;;;1.58;;
27612;SDS011;15036;48.094;-1.690;2023-04-15T03:06:54;8.68;;;1.50;;
27612;SDS011;15036;48.094;-1.690;2023-04-15T03:09:20;8.93;;;1.45;;
27612;SDS011;15036;48.094;-1.690;2023-04-15T03:11:46;9.90;;;1.80;;
27612;SDS011;15036;48.094;-1.690;2023-04-15T03:14:11;5.22;;;1.60;;
27612;SDS011;15036;48.094;-1.690;2023-04-15T03:16:36;10.02;;;1.75;;
27612;SDS011;15036;48.094;-1.690;2023-04-15T03:19:02;7.45;;;1.67;;
27612;SDS011;15036;48.094;-1.690;2023-04-15T03:21:27;8.25;;;2.13;;
27612;SDS011;15036;48.094;-1.690;2023-04-15T03:23:52;10.88;;;1.85;;
27612;SDS011;15036;48.094;-1.690;2023-04-15T03:26:30;10.82;;;2.30;;
27612;SDS011;15036;48.094;-1.690;2023-04-15T03:28:56;10.68;;;2.05;;
27612;SDS011;15036;48.094;-1.690;2023-04-15T03:31:22;12.45;;;2.10;;
27612;SDS011;15036;48.094;-1.690;2023-04-15T03:33:47;9.65;;;2.50;;
27612;SDS011;15036;48.094;-1.690;2023-04-15T03:36:13;9.35;;;2.00;;
27612;SDS011;15036;48.094;-1.690;2023-04-15T03:38:38;6.15;;;2.10;;
27612;SDS011;15036;48.094;-1.690;2023-04-15T03:41:04;7.80;;;2.08;;
27612;SDS011;15036;48.094;-1.690;2023-04-15T03:43:30;11.32;;;2.05;;
27612;SDS011;15036;48.094;-1.690;2023-04-15T03:45:55;12.73;;;2.10;;
27612;SDS011;15036;48.094;-1.690;2023-04-15T03:48:20;13.63;;;2.00;;
27612;SDS011;15036;48.094;-1.690;2023-04-15T03:50:46;11.10;;;2.20;;
27612;SDS011;15036;48.094;-1.690;2023-04-15T03:53:12;12.75;;;2.15;;
27612;SDS011;15036;48.094;-1.690;2023-04-15T03:55:37;7.63;;;1.83;;
27612;SDS011;15036;48.094;-1.690;2023-04-15T03:58:03;9.85;;;1.85;;
27612;SDS011;15036;48.094;-1.690;2023-04-15T04:00:28;7.10;;;1.70;;
27612;SDS011;15036;48.094;-1.690;2023-04-15T04:02:54;9.70;;;1.80;;
27612;SDS011;15036;48.094;-1.690;2023-04-15T04:05:20;8.27;;;1.92;;
27612;SDS011;15036;48.094;-1.690;2023-04-15T04:07:45;9.32;;;2.03;;
27612;SDS011;15036;48.094;-1.690;2023-04-15T04:10:11;7.22;;;1.80;;
27612;SDS011;15036;48.094;-1.690;2023-04-15T04:12:36;9.40;;;2.13;;
27612;SDS011;15036;48.094;-1.690;2023-04-15T04:15:03;11.63;;;2.30;;
27612;SDS011;15036;48.094;-1.690;2023-04-15T04:17:29;9.70;;;2.30;;
27612;SDS011;15036;48.094;-1.690;2023-04-15T04:19:55;17.05;;;3.25;;
27612;SDS011;15036;48.094;-1.690;2023-04-15T04:22:21;11.18;;;2.53;;
27612;SDS011;15036;48.094;-1.690;2023-04-15T04:24:48;9.88;;;2.03;;
27612;SDS011;15036;48.094;-1.690;2023-04-15T04:27:13;8.52;;;2.30;;
27612;SDS011;15036;48.094;-1.690;2023-04-15T04:29:39;8.27;;;2.42;;
27612;SDS011;15036;48.094;-1.690;2023-04-15T04:32:05;12.68;;;2.88;;
27612;SDS011;15036;48.094;-1.690;2023-04-15T04:34:30;11.25;;;2.35;;
27612;SDS011;15036;48.094;-1.690;2023-04-15T04:36:56;13.13;;;4.60;;
27612;SDS011;15036;48.094;-1.690;2023-04-15T04:39:21;12.25;;;2.60;;
27612;SDS011;15036;48.094;-1.690;2023-04-15T04:41:47;10.57;;;2.70;;
27612;SDS011;15036;48.094;-1.690;2023-04-15T04:44:12;12.18;;;2.60;;
27612;SDS011;15036;48.094;-1.690;2023-04-15T04:46:37;10.30;;;2.63;;
27612;SDS011;15036;48.094;-1.690;2023-04-15T04:49:05;12.35;;;2.72;;
27612;SDS011;15036;48.094;-1.690;2023-04-15T04:51:30;11.25;;;2.90;;
27612;SDS011;15036;48.094;-1.690;2023-04-15T04:53:56;11.82;;;2.97;;
27612;SDS011;15036;48.094;-1.690;2023-04-15T04:56:21;15.18;;;2.50;;
27612;SDS011;15036;48.094;-1.690;2023-04-15T04:58:47;12.88;;;2.80;;
27612;SDS011;15036;48.094;-1.690;2023-04-15T05:01:12;12.23;;;2.75;;
27612;SDS011;15036;48.094;-1.690;2023-04-15T05:03:38;14.80;;;2.50;;
27612;SDS011;15036;48.094;-1.690;2023-04-15T05:06:03;15.43;;;2.95;;
27612;SDS011;15036;48.094;-1.690;2023-04-15T05:08:31;9.30;;;2.35;;
27612;SDS011;15036;48.094;-1.690;2023-04-15T05:10:56;11.57;;;2.55;;
27612;SDS011;15036;48.094;-1.690;2023-04-15T05:13:22;13.40;;;2.47;;
27612;SDS011;15036;48.094;-1.690;2023-04-15T05:15:47;10.98;;;2.58;;
27612;SDS011;15036;48.094;-1.690;2023-04-15T05:18:13;8.50;;;2.80;;
27612;SDS011;15036;48.094;-1.690;2023-04-15T05:20:38;11.75;;;2.80;;
27612;SDS011;15036;48.094;-1.690;2023-04-15T05:23:04;13.45;;;2.80;;
27612;SDS011;15036;48.094;-1.690;2023-04-15T05:25:29;14.65;;;3.00;;
27612;SDS011;15036;48.094;-1.690;2023-04-15T05:27:56;14.20;;;2.88;;
27612;SDS011;15036;48.094;-1.690;2023-04-15T05:30:21;13.30;;;2.70;;
27612;SDS011;15036;48.094;-1.690;2023-04-15T05:32:46;16.90;;;3.20;;
27612;SDS011;15036;48.094;-1.690;2023-04-15T05:35:12;14.20;;;3.10;;
27612;SDS011;15036;48.094;-1.690;2023-04-15T05:37:37;16.60;;;2.80;;
27612;SDS011;15036;48.094;-1.690;2023-04-15T05:40:03;13.32;;;2.90;;
27612;SDS011;15036;48.094;-1.690;2023-04-15T05:42:28;11.48;;;3.15;;
27612;SDS011;15036;48.094;-1.690;2023-04-15T05:44:54;17.52;;;4.70;;
27612;SDS011;15036;48.094;-1.690;2023-04-15T05:47:19;18.88;;;3.22;;
27612;SDS011;15036;48.094;-1.690;2023-04-15T05:49:45;13.35;;;5.18;;
27612;SDS011;15036;48.094;-1.690;2023-04-15T05:52:10;16.58;;;3.08;;
27612;SDS011;15036;48.094;-1.690;2023-04-15T05:54:35;17.05;;;4.60;;
27612;SDS011;15036;48.094;-1.690;2023-04-15T05:57:01;14.68;;;4.10;;
27612;SDS011;15036;48.094;-1.690;2023-04-15T05:59:26;16.48;;;3.42;;
27612;SDS011;15036;48.094;-1.690;2023-04-15T06:01:52;19.33;;;3.97;;
27612;SDS011;15036;48.094;-1.690;2023-04-15T06:04:18;11.10;;;2.78;;
27612;SDS011;15036;48.094;-1.690;2023-04-15T06:06:43;15.88;;;3.03;;
27612;SDS011;15036;48.094;-1.690;2023-04-15T06:09:09;22.50;;;4.00;;
27612;SDS011;15036;48.094;-1.690;2023-04-15T06:11:35;11.88;;;3.10;;
27612;SDS011;15036;48.094;-1.690;2023-04-15T06:14:00;13.35;;;3.00;;
27612;SDS011;15036;48.094;-1.690;2023-04-15T06:16:26;17.50;;;4.95;;
27612;SDS011;15036;48.094;-1.690;2023-04-15T06:18:51;12.68;;;3.72;;
27612;SDS011;15036;48.094;-1.690;2023-04-15T06:21:17;10.18;;;2.80;;
27612;SDS011;15036;48.094;-1.690;2023-04-15T06:23:42;16.10;;;3.53;;
27612;SDS011;15036;48.094;-1.690;2023-04-15T06:26:07;16.90;;;3.42;;
27612;SDS011;15036;48.094;-1.690;2023-04-15T06:28:33;13.13;;;2.75;;
27612;SDS011;15036;48.094;-1.690;2023-04-15T06:30:58;14.35;;;3.47;;
27612;SDS011;15036;48.094;-1.690;2023-04-15T06:33:25;13.77;;;3.10;;
27612;SDS011;15036;48.094;-1.690;2023-04-15T06:35:50;14.05;;;3.30;;
27612;SDS011;15036;48.094;-1.690;2023-04-15T06:38:16;19.25;;;4.57;;
27612;SDS011;15036;48.094;-1.690;2023-04-15T06:40:42;16.38;;;3.47;;
27612;SDS011;15036;48.094;-1.690;2023-04-15T06:43:08;17.55;;;3.72;;
27612;SDS011;15036;48.094;-1.690;2023-04-15T06:45:34;12.65;;;3.17;;
27612;SDS011;15036;48.094;-1.690;2023-04-15T06:47:59;11.57;;;2.40;;
27612;SDS011;15036;48.094;-1.690;2023-04-15T06:50:25;14.10;;;3.10;;
27612;SDS011;15036;48.094;-1.690;2023-04-15T06:52:51;11.82;;;3.40;;
27612;SDS011;15036;48.094;-1.690;2023-04-15T06:55:17;15.43;;;2.90;;
27612;SDS011;15036;48.094;-1.690;2023-04-15T06:57:43;14.60;;;2.75;;
27612;SDS011;15036;48.094;-1.690;2023-04-15T07:00:08;13.10;;;2.60;;
27612;SDS011;15036;48.094;-1.690;2023-04-15T07:02:36;12.25;;;2.95;;
27612;SDS011;15036;48.094;-1.690;2023-04-15T07:05:01;11.80;;;2.85;;
27612;SDS011;15036;48.094;-1.690;2023-04-15T07:07:40;16.10;;;3.58;;
27612;SDS011;15036;48.094;-1.690;2023-04-15T07:10:07;16.17;;;3.40;;
27612;SDS011;15036;48.094;-1.690;2023-04-15T07:12:32;12.27;;;2.83;;
27612;SDS011;15036;48.094;-1.690;2023-04-15T07:14:59;18.73;;;3.45;;
27612;SDS011;15036;48.094;-1.690;2023-04-15T07:17:24;18.23;;;3.08;;
27612;SDS011;15036;48.094;-1.690;2023-04-15T07:19:50;11.90;;;2.50;;
27612;SDS011;15036;48.094;-1.690;2023-04-15T07:22:15;15.95;;;3.00;;
27612;SDS011;15036;48.094;-1.690;2023-04-15T07:24:41;13.63;;;2.90;;
27612;SDS011;15036;48.094;-1.690;2023-04-15T07:27:06;12.93;;;2.72;;
27612;SDS011;15036;48.094;-1.690;2023-04-15T07:29:32;14.40;;;2.67;;
27612;SDS011;15036;48.094;-1.690;2023-04-15T07:31:57;12.68;;;2.88;;
27612;SDS011;15036;48.094;-1.690;2023-04-15T07:34:24;19.00;;;3.42;;
27612;SDS011;15036;48.094;-1.690;2023-04-15T07:36:49;14.88;;;4.03;;
27612;SDS011;15036;48.094;-1.690;2023-04-15T07:39:16;13.02;;;3.30;;
27612;SDS011;15036;48.094;-1.690;2023-04-15T07:41:42;9.75;;;2.30;;
27612;SDS011;15036;48.094;-1.690;2023-04-15T07:44:07;13.77;;;3.30;;
27612;SDS011;15036;48.094;-1.690;2023-04-15T07:46:33;16.00;;;3.00;;
27612;SDS011;15036;48.094;-1.690;2023-04-15T07:48:58;15.57;;;3.10;;
27612;SDS011;15036;48.094;-1.690;2023-04-15T07:51:24;14.13;;;3.63;;
27612;SDS011;15036;48.094;-1.690;2023-04-15T07:53:49;12.68;;;3.40;;
27612;SDS011;15036;48.094;-1.690;2023-04-15T07:56:15;13.50;;;2.42;;
27612;SDS011;15036;48.094;-1.690;2023-04-15T07:58:41;11.10;;;2.55;;
27612;SDS011;15036;48.094;-1.690;2023-04-15T08:01:07;12.90;;;2.63;;
27612;SDS011;15036;48.094;-1.690;2023-04-15T08:03:34;14.98;;;2.58;;
27612;SDS011;15036;48.094;-1.690;2023-04-15T08:05:59;11.68;;;2.90;;
27612;SDS011;15036;48.094;-1.690;2023-04-15T08:08:24;13.48;;;3.03;;
27612;SDS011;15036;48.094;-1.690;2023-04-15T08:10:50;14.35;;;2.90;;
27612;SDS011;15036;48.094;-1.690;2023-04-15T08:13:16;13.15;;;2.55;;
27612;SDS011;15036;48.094;-1.690;2023-04-15T08:15:41;10.05;;;2.42;;
27612;SDS011;15036;48.094;-1.690;2023-04-15T08:18:07;9.30;;;2.47;;
27612;SDS011;15036;48.094;-1.690;2023-04-15T08:20:32;11.35;;;2.65;;
27612;SDS011;15036;48.094;-1.690;2023-04-15T08:22:58;10.00;;;2.03;;
27612;SDS011;15036;48.094;-1.690;2023-04-15T08:25:23;12.40;;;3.95;;
27612;SDS011;15036;48.094;-1.690;2023-04-15T08:27:49;14.70;;;2.83;;
27612;SDS011;15036;48.094;-1.690;2023-04-15T08:30:14;8.63;;;2.10;;
27612;SDS011;15036;48.094;-1.690;2023-04-15T08:32:46;13.90;;;2.90;;
27612;SDS011;15036;48.094;-1.690;2023-04-15T08:35:12;13.65;;;4.57;;
27612;SDS011;15036;48.094;-1.690;2023-04-15T08:37:38;14.40;;;3.00;;
27612;SDS011;15036;48.094;-1.690;2023-04-15T08:40:03;10.68;;;3.88;;
27612;SDS011;15036;48.094;-1.690;2023-04-15T08:42:35;10.20;;;3.15;;
27612;SDS011;15036;48.094;-1.690;2023-04-15T08:45:02;16.40;;;5.22;;
27612;SDS011;15036;48.094;-1.690;2023-04-15T08:47:31;13.32;;;2.72;;
27612;SDS011;15036;48.094;-1.690;2023-04-15T08:49:57;9.05;;;2.25;;
27612;SDS011;15036;48.094;-1.690;2023-04-15T08:52:24;11.13;;;3.92;;
27612;SDS011;15036;48.094;-1.690;2023-04-15T08:54:51;12.55;;;3.45;;
27612;SDS011;15036;48.094;-1.690;2023-04-15T08:57:20;13.80;;;5.25;;
27612;SDS011;15036;48.094;-1.690;2023-04-15T08:59:50;16.33;;;6.77;;
27612;SDS011;15036;48.094;-1.690;2023-04-15T09:02:17;8.57;;;3.03;;
27612;SDS011;15036;48.094;-1.690;2023-04-15T09:04:42;10.77;;;2.40;;
27612;SDS011;15036;48.094;-1.690;2023-04-15T09:07:08;15.50;;;4.00;;
27612;SDS011;15036;48.094;-1.690;2023-04-15T09:09:33;7.82;;;2.65;;
27612;SDS011;15036;48.094;-1.690;2023-04-15T09:12:01;6.32;;;2.13;;
27612;SDS011;15036;48.094;-1.690;2023-04-15T09:14:27;8.38;;;2.50;;
27612;SDS011;15036;48.094;-1.690;2023-04-15T09:16:59;9.32;;;1.75;;
27612;SDS011;15036;48.094;-1.690;2023-04-15T09:19:26;7.13;;;3.42;;
27612;SDS011;15036;48.094;-1.690;2023-04-15T09:21:55;10.07;;;2.38;;
27612;SDS011;15036;48.094;-1.690;2023-04-15T09:24:22;9.40;;;2.17;;
27612;SDS011;15036;48.094;-1.690;2023-04-15T09:26:51;10.55;;;1.67;;
27612;SDS011;15036;48.094;-1.690;2023-04-15T09:29:24;3.80;;;1.50;;
27612;SDS011;15036;48.094;-1.690;2023-04-15T09:31:50;8.77;;;1.50;;
27612;SDS011;15036;48.094;-1.690;2023-04-15T09:34:16;7.28;;;1.70;;
27612;SDS011;15036;48.094;-1.690;2023-04-15T09:39:10;5.78;;;1.65;;
27612;SDS011;15036;48.094;-1.690;2023-04-15T09:41:35;6.22;;;1.40;;
27612;SDS011;15036;48.094;-1.690;2023-04-15T09:44:01;3.83;;;1.23;;
27612;SDS011;15036;48.094;-1.690;2023-04-15T09:46:42;8.05;;;1.75;;
27612;SDS011;15036;48.094;-1.690;2023-04-15T09:49:09;4.32;;;1.40;;
27612;SDS011;15036;48.094;-1.690;2023-04-15T09:51:35;3.60;;;1.25;;
27612;SDS011;15036;48.094;-1.690;2023-04-15T09:54:01;6.30;;;1.58;;
27612;SDS011;15036;48.094;-1.690;2023-04-15T09:56:33;7.55;;;1.67;;
27612;SDS011;15036;48.094;-1.690;2023-04-15T09:59:05;6.65;;;1.85;;
27612;SDS011;15036;48.094;-1.690;2023-04-15T10:01:32;6.95;;;1.60;;
27612;SDS011;15036;48.094;-1.690;2023-04-15T10:03:57;6.18;;;1.38;;
27612;SDS011;15036;48.094;-1.690;2023-04-15T10:06:26;7.07;;;1.50;;
27612;SDS011;15036;48.094;-1.690;2023-04-15T10:08:53;13.75;;;7.60;;
27612;SDS011;15036;48.094;-1.690;2023-04-15T10:11:20;6.40;;;1.60;;
27612;SDS011;15036;48.094;-1.690;2023-04-15T10:13:48;6.03;;;2.60;;
27612;SDS011;15036;48.094;-1.690;2023-04-15T10:16:15;4.45;;;1.35;;
27612;SDS011;15036;48.094;-1.690;2023-04-15T10:18:43;4.53;;;1.45;;
27612;SDS011;15036;48.094;-1.690;2023-04-15T10:21:10;4.80;;;1.27;;
27612;SDS011;15036;48.094;-1.690;2023-04-15T10:23:38;7.07;;;1.52;;
27612;SDS011;15036;48.094;-1.690;2023-04-15T10:26:04;6.57;;;1.55;;
27612;SDS011;15036;48.094;-1.690;2023-04-15T10:28:30;8.18;;;1.55;;
27612;SDS011;15036;48.094;-1.690;2023-04-15T10:30:56;5.25;;;1.13;;
27612;SDS011;15036;48.094;-1.690;2023-04-15T10:33:23;5.80;;;1.85;;
27612;SDS011;15036;48.094;-1.690;2023-04-15T10:35:50;7.03;;;1.20;;
27612;SDS011;15036;48.094;-1.690;2023-04-15T10:41:19;4.03;;;1.30;;
27612;SDS011;15036;48.094;-1.690;2023-04-15T10:43:52;5.10;;;1.30;;
27612;SDS011;15036;48.094;-1.690;2023-04-15T10:46:43;4.95;;;1.40;;
27612;SDS011;15036;48.094;-1.690;2023-04-15T10:49:09;5.10;;;1.02;;
27612;SDS011;15036;48.094;-1.690;2023-04-15T10:51:36;5.05;;;1.23;;
27612;SDS011;15036;48.094;-1.690;2023-04-15T10:54:07;6.53;;;1.77;;
27612;SDS011;15036;48.094;-1.690;2023-04-15T10:56:37;4.88;;;1.38;;
27612;SDS011;15036;48.094;-1.690;2023-04-15T10:59:05;5.45;;;1.20;;
27612;SDS011;15036;48.094;-1.690;2023-04-15T11:12:46;2.97;;;1.38;;
27612;SDS011;15036;48.094;-1.690;2023-04-15T11:18:21;3.65;;;0.98;;
27612;SDS011;15036;48.094;-1.690;2023-04-15T11:20:52;4.18;;;1.15;;
27612;SDS011;15036;48.094;-1.690;2023-04-15T11:23:35;3.90;;;1.13;;
27612;SDS011;15036;48.094;-1.690;2023-04-15T11:26:13;3.90;;;1.15;;
27612;SDS011;15036;48.094;-1.690;2023-04-15T11:28:40;5.40;;;1.50;;
27612;SDS011;15036;48.094;-1.690;2023-04-15T11:31:08;4.68;;;1.23;;
27612;SDS011;15036;48.094;-1.690;2023-04-15T11:33:35;5.13;;;1.42;;
27612;SDS011;15036;48.094;-1.690;2023-04-15T11:36:01;3.80;;;1.75;;
27612;SDS011;15036;48.094;-1.690;2023-04-15T11:38:28;3.08;;;1.10;;
27612;SDS011;15036;48.094;-1.690;2023-04-15T11:40:54;8.00;;;2.20;;
27612;SDS011;15036;48.094;-1.690;2023-04-15T11:43:20;4.88;;;2.72;;
27612;SDS011;15036;48.094;-1.690;2023-04-15T11:45:51;5.53;;;1.65;;
27612;SDS011;15036;48.094;-1.690;2023-04-15T11:48:17;10.07;;;4.70;;
27612;SDS011;15036;48.094;-1.690;2023-04-15T11:50:44;3.28;;;1.20;;
27612;SDS011;15036;48.094;-1.690;2023-04-15T11:53:10;5.43;;;1.50;;
27612;SDS011;15036;48.094;-1.690;2023-04-15T11:55:43;3.80;;;1.52;;
27612;SDS011;15036;48.094;-1.690;2023-04-15T11:58:14;4.55;;;1.38;;
27612;SDS011;15036;48.094;-1.690;2023-04-15T12:00:53;4.90;;;1.00;;
27612;SDS011;15036;48.094;-1.690;2023-04-15T12:03:24;5.03;;;1.08;;
27612;SDS011;15036;48.094;-1.690;2023-04-15T12:11:35;4.53;;;1.00;;
27612;SDS011;15036;48.094;-1.690;2023-04-15T12:19:09;5.43;;;1.63;;
27612;SDS011;15036;48.094;-1.690;2023-04-15T12:21:37;4.80;;;1.27;;
27612;SDS011;15036;48.094;-1.690;2023-04-15T12:24:04;7.28;;;1.33;;
27612;SDS011;15036;48.094;-1.690;2023-04-15T12:26:35;4.45;;;1.10;;
27612;SDS011;15036;48.094;-1.690;2023-04-15T12:29:07;4.07;;;1.33;;
27612;SDS011;15036;48.094;-1.690;2023-04-15T12:31:33;3.15;;;0.82;;
27612;SDS011;15036;48.094;-1.690;2023-04-15T12:34:00;3.70;;;1.10;;
27612;SDS011;15036;48.094;-1.690;2023-04-15T12:36:26;4.80;;;1.65;;
27612;SDS011;15036;48.094;-1.690;2023-04-15T12:38:52;3.22;;;1.13;;
27612;SDS011;15036;48.094;-1.690;2023-04-15T12:41:19;3.78;;;1.02;;
27612;SDS011;15036;48.094;-1.690;2023-04-15T12:43:45;3.05;;;0.85;;
27612;SDS011;15036;48.094;-1.690;2023-04-15T12:46:11;4.72;;;0.90;;
27612;SDS011;15036;48.094;-1.690;2023-04-15T12:48:37;2.90;;;1.00;;
27612;SDS011;15036;48.094;-1.690;2023-04-15T12:51:02;3.13;;;0.88;;
27612;SDS011;15036;48.094;-1.690;2023-04-15T12:53:28;5.32;;;1.35;;
27612;SDS011;15036;48.094;-1.690;2023-04-15T12:55:53;2.65;;;0.90;;
27612;SDS011;15036;48.094;-1.690;2023-04-15T12:58:18;2.80;;;0.90;;
27612;SDS011;15036;48.094;-1.690;2023-04-15T13:00:45;4.40;;;1.10;;
27612;SDS011;15036;48.094;-1.690;2023-04-15T13:03:13;3.05;;;1.00;;
27612;SDS011;15036;48.094;-1.690;2023-04-15T13:05:38;4.30;;;1.30;;
27612;SDS011;15036;48.094;-1.690;2023-04-15T13:08:04;3.10;;;1.05;;
27612;SDS011;15036;48.094;-1.690;2023-04-15T13:10:32;5.30;;;1.10;;
27612;SDS011;15036;48.094;-1.690;2023-04-15T13:13:00;2.67;;;1.00;;
27612;SDS011;15036;48.094;-1.690;2023-04-15T13:15:26;4.05;;;0.90;;
27612;SDS011;15036;48.094;-1.690;2023-04-15T13:17:51;3.53;;;0.98;;
27612;SDS011;15036;48.094;-1.690;2023-04-15T13:20:17;3.75;;;0.80;;
27612;SDS011;15036;48.094;-1.690;2023-04-15T13:22:42;4.00;;;1.05;;
27612;SDS011;15036;48.094;-1.690;2023-04-15T13:25:07;3.45;;;1.20;;
27612;SDS011;15036;48.094;-1.690;2023-04-15T13:27:33;5.47;;;1.30;;
27612;SDS011;15036;48.094;-1.690;2023-04-15T13:29:58;3.47;;;1.15;;
27612;SDS011;15036;48.094;-1.690;2023-04-15T13:32:24;4.35;;;0.90;;
27612;SDS011;15036;48.094;-1.690;2023-04-15T13:34:50;5.78;;;1.45;;
27612;SDS011;15036;48.094;-1.690;2023-04-15T13:37:15;2.95;;;1.10;;
27612;SDS011;15036;48.094;-1.690;2023-04-15T13:39:41;3.65;;;1.40;;
27612;SDS011;15036;48.094;-1.690;2023-04-15T13:42:06;2.20;;;0.90;;
27612;SDS011;15036;48.094;-1.690;2023-04-15T13:44:31;2.47;;;0.77;;
27612;SDS011;15036;48.094;-1.690;2023-04-15T13:46:57;4.75;;;1.00;;
27612;SDS011;15036;48.094;-1.690;2023-04-15T13:49:22;3.58;;;1.10;;
27612;SDS011;15036;48.094;-1.690;2023-04-15T13:51:48;3.70;;;1.20;;
27612;SDS011;15036;48.094;-1.690;2023-04-15T13:54:13;4.72;;;1.20;;
27612;SDS011;15036;48.094;-1.690;2023-04-15T13:56:38;6.43;;;1.35;;
27612;SDS011;15036;48.094;-1.690;2023-04-15T13:59:04;2.83;;;0.90;;
27612;SDS011;15036;48.094;-1.690;2023-04-15T14:01:30;6.78;;;1.67;;
27612;SDS011;15036;48.094;-1.690;2023-04-15T14:03:56;3.90;;;1.33;;
27612;SDS011;15036;48.094;-1.690;2023-04-15T14:06:21;3.30;;;1.00;;
27612;SDS011;15036;48.094;-1.690;2023-04-15T14:08:46;4.57;;;2.03;;
27612;SDS011;15036;48.094;-1.690;2023-04-15T14:11:12;2.85;;;0.90;;
27612;SDS011;15036;48.094;-1.690;2023-04-15T14:13:37;3.58;;;1.00;;
27612;SDS011;15036;48.094;-1.690;2023-04-15T14:16:02;4.18;;;1.10;;
27612;SDS011;15036;48.094;-1.690;2023-04-15T14:18:28;2.97;;;1.00;;
27612;SDS011;15036;48.094;-1.690;2023-04-15T14:20:54;4.93;;;1.00;;
27612;SDS011;15036;48.094;-1.690;2023-04-15T14:23:20;3.60;;;0.88;;
27612;SDS011;15036;48.094;-1.690;2023-04-15T14:25:45;4.35;;;1.35;;
27612;SDS011;15036;48.094;-1.690;2023-04-15T14:28:11;3.33;;;1.00;;
27612;SDS011;15036;48.094;-1.690;2023-04-15T14:30:36;4.82;;;1.05;;
27612;SDS011;15036;48.094;-1.690;2023-04-15T14:33:01;5.00;;;0.95;;
27612;SDS011;15036;48.094;-1.690;2023-04-15T14:35:27;3.58;;;0.70;;
27612;SDS011;15036;48.094;-1.690;2023-04-15T14:37:53;2.17;;;0.73;;
27612;SDS011;15036;48.094;-1.690;2023-04-15T14:40:19;2.80;;;0.82;;
27612;SDS011;15036;48.094;-1.690;2023-04-15T14:42:45;3.53;;;0.80;;
27612;SDS011;15036;48.094;-1.690;2023-04-15T14:45:10;4.55;;;1.15;;
27612;SDS011;15036;48.094;-1.690;2023-04-15T14:47:36;4.78;;;1.00;;
27612;SDS011;15036;48.094;-1.690;2023-04-15T14:50:01;3.03;;;0.95;;
27612;SDS011;15036;48.094;-1.690;2023-04-15T14:52:27;3.85;;;1.00;;
27612;SDS011;15036;48.094;-1.690;2023-04-15T14:54:53;3.78;;;0.88;;
27612;SDS011;15036;48.094;-1.690;2023-04-15T14:57:18;6.00;;;1.20;;